sensor_id;sensor_type;location;lat;lon;timestamp;temperature;humidity
42715;DHT22;28351;51.480;5.706;2022-07-01T00:01:26;14.20;99.90
42715;DHT22;28351;51.480;5.706;2022-07-01T00:03:53;14.10;99.90
42715;DHT22;28351;51.480;5.706;2022-07-01T00:06:19;14.10;99.90
42715;DHT22;28351;51.480;5.706;2022-07-01T00:08:45;14.00;99.90
42715;DHT22;28351;51.480;5.706;2022-07-01T00:11:11;14.00;99.90
42715;DHT22;28351;51.480;5.706;2022-07-01T00:13:37;13.90;99.90
42715;DHT22;28351;51.480;5.706;2022-07-01T00:16:03;13.90;99.90
42715;DHT22;28351;51.480;5.706;2022-07-01T00:18:29;13.90;99.90
42715;DHT22;28351;51.480;5.706;2022-07-01T00:20:55;13.80;99.90
42715;DHT22;28351;51.480;5.706;2022-07-01T00:23:21;13.80;99.90
42715;DHT22;28351;51.480;5.706;2022-07-01T00:25:47;13.80;99.90
42715;DHT22;28351;51.480;5.706;2022-07-01T00:28:13;13.80;99.90
42715;DHT22;28351;51.480;5.706;2022-07-01T00:30:38;13.80;99.90
42715;DHT22;28351;51.480;5.706;2022-07-01T00:33:04;13.70;99.90
42715;DHT22;28351;51.480;5.706;2022-07-01T00:35:30;13.70;99.90
42715;DHT22;28351;51.480;5.706;2022-07-01T00:37:56;13.70;99.90
42715;DHT22;28351;51.480;5.706;2022-07-01T00:40:26;13.70;99.90
42715;DHT22;28351;51.480;5.706;2022-07-01T00:42:52;13.70;99.90
42715;DHT22;28351;51.480;5.706;2022-07-01T00:45:17;13.70;99.90
42715;DHT22;28351;51.480;5.706;2022-07-01T00:47:43;13.70;99.90
42715;DHT22;28351;51.480;5.706;2022-07-01T00:50:12;13.70;99.90
42715;DHT22;28351;51.480;5.706;2022-07-01T00:52:42;13.80;99.90
42715;DHT22;28351;51.480;5.706;2022-07-01T00:55:12;13.80;99.90
42715;DHT22;28351;51.480;5.706;2022-07-01T00:57:40;13.90;99.90
42715;DHT22;28351;51.480;5.706;2022-07-01T01:00:11;13.90;99.90
42715;DHT22;28351;51.480;5.706;2022-07-01T01:02:37;13.90;99.90
42715;DHT22;28351;51.480;5.706;2022-07-01T01:05:05;13.90;99.90
42715;DHT22;28351;51.480;5.706;2022-07-01T01:07:31;13.80;99.90
42715;DHT22;28351;51.480;5.706;2022-07-01T01:09:58;13.90;99.90
42715;DHT22;28351;51.480;5.706;2022-07-01T01:12:28;13.90;99.90
42715;DHT22;28351;51.480;5.706;2022-07-01T01:14:55;13.90;99.90
42715;DHT22;28351;51.480;5.706;2022-07-01T01:17:21;14.00;99.90
42715;DHT22;28351;51.480;5.706;2022-07-01T01:19:48;14.00;99.90
42715;DHT22;28351;51.480;5.706;2022-07-01T01:22:18;14.00;99.90
42715;DHT22;28351;51.480;5.706;2022-07-01T01:24:45;14.10;99.90
42715;DHT22;28351;51.480;5.706;2022-07-01T01:27:11;14.10;99.90
42715;DHT22;28351;51.480;5.706;2022-07-01T01:29:41;14.10;99.90
42715;DHT22;28351;51.480;5.706;2022-07-01T01:32:07;14.10;99.90
42715;DHT22;28351;51.480;5.706;2022-07-01T01:34:33;14.20;99.90
42715;DHT22;28351;51.480;5.706;2022-07-01T01:37:01;14.10;99.90
42715;DHT22;28351;51.480;5.706;2022-07-01T01:39:26;14.20;99.90
42715;DHT22;28351;51.480;5.706;2022-07-01T01:41:52;14.20;99.90
42715;DHT22;28351;51.480;5.706;2022-07-01T01:44:17;14.20;99.90
42715;DHT22;28351;51.480;5.706;2022-07-01T01:46:44;14.20;99.90
42715;DHT22;28351;51.480;5.706;2022-07-01T01:49:09;14.20;99.90
42715;DHT22;28351;51.480;5.706;2022-07-01T01:51:36;14.20;99.90
42715;DHT22;28351;51.480;5.706;2022-07-01T01:54:02;14.10;99.90
42715;DHT22;28351;51.480;5.706;2022-07-01T01:56:28;14.10;99.90
42715;DHT22;28351;51.480;5.706;2022-07-01T01:58:55;14.10;99.90
42715;DHT22;28351;51.480;5.706;2022-07-01T02:01:21;14.10;99.90
42715;DHT22;28351;51.480;5.706;2022-07-01T02:03:48;14.10;99.90
42715;DHT22;28351;51.480;5.706;2022-07-01T02:06:15;14.10;99.90
42715;DHT22;28351;51.480;5.706;2022-07-01T02:08:42;14.10;99.90
42715;DHT22;28351;51.480;5.706;2022-07-01T02:11:08;14.10;99.90
42715;DHT22;28351;51.480;5.706;2022-07-01T02:13:34;14.10;99.90
42715;DHT22;28351;51.480;5.706;2022-07-01T02:16:00;14.10;99.90
42715;DHT22;28351;51.480;5.706;2022-07-01T02:18:26;14.20;99.90
42715;DHT22;28351;51.480;5.706;2022-07-01T02:20:51;14.20;99.90
42715;DHT22;28351;51.480;5.706;2022-07-01T02:23:18;14.30;99.90
42715;DHT22;28351;51.480;5.706;2022-07-01T02:25:43;14.30;99.90
42715;DHT22;28351;51.480;5.706;2022-07-01T02:28:10;14.30;99.90
42715;DHT22;28351;51.480;5.706;2022-07-01T02:30:35;14.30;99.90
42715;DHT22;28351;51.480;5.706;2022-07-01T02:33:05;14.30;99.90
42715;DHT22;28351;51.480;5.706;2022-07-01T02:35:32;14.30;99.90
42715;DHT22;28351;51.480;5.706;2022-07-01T02:37:58;14.30;99.90
42715;DHT22;28351;51.480;5.706;2022-07-01T02:40:24;14.20;99.90
42715;DHT22;28351;51.480;5.706;2022-07-01T02:42:49;14.20;99.90
42715;DHT22;28351;51.480;5.706;2022-07-01T02:45:15;14.20;99.90
42715;DHT22;28351;51.480;5.706;2022-07-01T02:47:41;14.10;99.90
42715;DHT22;28351;51.480;5.706;2022-07-01T02:50:09;14.10;99.90
42715;DHT22;28351;51.480;5.706;2022-07-01T02:52:37;14.10;99.90
42715;DHT22;28351;51.480;5.706;2022-07-01T02:55:05;14.10;99.90
42715;DHT22;28351;51.480;5.706;2022-07-01T02:57:31;14.20;99.90
42715;DHT22;28351;51.480;5.706;2022-07-01T02:59:57;14.20;99.90
42715;DHT22;28351;51.480;5.706;2022-07-01T03:02:22;14.20;99.90
42715;DHT22;28351;51.480;5.706;2022-07-01T03:04:49;14.10;99.90
42715;DHT22;28351;51.480;5.706;2022-07-01T03:07:16;14.10;99.90
42715;DHT22;28351;51.480;5.706;2022-07-01T03:09:42;14.10;99.90
42715;DHT22;28351;51.480;5.706;2022-07-01T03:12:10;14.10;99.90
42715;DHT22;28351;51.480;5.706;2022-07-01T03:14:53;14.10;99.90
42715;DHT22;28351;51.480;5.706;2022-07-01T03:17:19;14.10;99.90
42715;DHT22;28351;51.480;5.706;2022-07-01T03:19:45;14.10;99.90
42715;DHT22;28351;51.480;5.706;2022-07-01T03:22:11;14.20;99.90
42715;DHT22;28351;51.480;5.706;2022-07-01T03:24:37;14.20;99.90
42715;DHT22;28351;51.480;5.706;2022-07-01T03:27:03;14.20;99.90
42715;DHT22;28351;51.480;5.706;2022-07-01T03:29:28;14.10;99.90
42715;DHT22;28351;51.480;5.706;2022-07-01T03:31:54;14.20;99.90
42715;DHT22;28351;51.480;5.706;2022-07-01T03:34:20;14.10;99.90
42715;DHT22;28351;51.480;5.706;2022-07-01T03:36:45;14.20;99.90
42715;DHT22;28351;51.480;5.706;2022-07-01T03:39:13;14.20;99.90
42715;DHT22;28351;51.480;5.706;2022-07-01T03:41:38;14.30;99.90
42715;DHT22;28351;51.480;5.706;2022-07-01T03:44:04;14.30;99.90
42715;DHT22;28351;51.480;5.706;2022-07-01T03:46:31;14.30;99.90
42715;DHT22;28351;51.480;5.706;2022-07-01T03:48:58;14.20;99.90
42715;DHT22;28351;51.480;5.706;2022-07-01T03:51:24;14.20;99.90
42715;DHT22;28351;51.480;5.706;2022-07-01T03:53:49;14.20;99.90
42715;DHT22;28351;51.480;5.706;2022-07-01T03:56:33;14.20;99.90
42715;DHT22;28351;51.480;5.706;2022-07-01T03:58:59;14.20;99.90
42715;DHT22;28351;51.480;5.706;2022-07-01T04:01:24;14.20;99.90
42715;DHT22;28351;51.480;5.706;2022-07-01T04:03:50;14.20;99.90
42715;DHT22;28351;51.480;5.706;2022-07-01T04:06:16;14.20;99.90
42715;DHT22;28351;51.480;5.706;2022-07-01T04:08:42;14.20;99.90
42715;DHT22;28351;51.480;5.706;2022-07-01T04:11:08;14.20;99.90
42715;DHT22;28351;51.480;5.706;2022-07-01T04:13:35;14.20;99.90
42715;DHT22;28351;51.480;5.706;2022-07-01T04:16:02;14.20;99.90
42715;DHT22;28351;51.480;5.706;2022-07-01T04:18:29;14.20;99.90
42715;DHT22;28351;51.480;5.706;2022-07-01T04:20:54;14.20;99.90
42715;DHT22;28351;51.480;5.706;2022-07-01T04:23:38;14.20;99.90
42715;DHT22;28351;51.480;5.706;2022-07-01T04:26:04;14.20;99.90
42715;DHT22;28351;51.480;5.706;2022-07-01T04:28:30;14.20;99.90
42715;DHT22;28351;51.480;5.706;2022-07-01T04:30:55;14.20;99.90
42715;DHT22;28351;51.480;5.706;2022-07-01T04:33:21;14.20;99.90
42715;DHT22;28351;51.480;5.706;2022-07-01T04:35:47;14.20;99.90
42715;DHT22;28351;51.480;5.706;2022-07-01T04:38:12;14.20;99.90
42715;DHT22;28351;51.480;5.706;2022-07-01T04:40:39;14.20;99.90
42715;DHT22;28351;51.480;5.706;2022-07-01T04:43:04;14.10;99.90
42715;DHT22;28351;51.480;5.706;2022-07-01T04:45:30;14.20;99.90
42715;DHT22;28351;51.480;5.706;2022-07-01T04:47:55;14.30;99.90
42715;DHT22;28351;51.480;5.706;2022-07-01T04:50:21;14.20;99.90
42715;DHT22;28351;51.480;5.706;2022-07-01T04:52:47;14.20;99.90
42715;DHT22;28351;51.480;5.706;2022-07-01T04:55:13;14.30;99.90
42715;DHT22;28351;51.480;5.706;2022-07-01T04:57:39;14.30;99.90
42715;DHT22;28351;51.480;5.706;2022-07-01T05:00:05;14.30;99.90
42715;DHT22;28351;51.480;5.706;2022-07-01T05:02:30;14.30;99.90
42715;DHT22;28351;51.480;5.706;2022-07-01T05:04:56;14.40;99.90
42715;DHT22;28351;51.480;5.706;2022-07-01T05:07:21;14.40;99.90
42715;DHT22;28351;51.480;5.706;2022-07-01T05:09:54;14.40;99.90
42715;DHT22;28351;51.480;5.706;2022-07-01T05:12:20;14.40;99.90
42715;DHT22;28351;51.480;5.706;2022-07-01T05:14:46;14.40;99.90
42715;DHT22;28351;51.480;5.706;2022-07-01T05:17:12;14.40;99.90
42715;DHT22;28351;51.480;5.706;2022-07-01T05:19:37;14.40;99.90
42715;DHT22;28351;51.480;5.706;2022-07-01T05:22:21;14.40;99.90
42715;DHT22;28351;51.480;5.706;2022-07-01T05:24:47;14.60;99.90
42715;DHT22;28351;51.480;5.706;2022-07-01T05:27:12;14.50;99.90
42715;DHT22;28351;51.480;5.706;2022-07-01T05:29:38;14.50;99.90
42715;DHT22;28351;51.480;5.706;2022-07-01T05:32:04;14.60;99.90
42715;DHT22;28351;51.480;5.706;2022-07-01T05:34:30;14.50;99.90
42715;DHT22;28351;51.480;5.706;2022-07-01T05:36:56;14.60;99.90
42715;DHT22;28351;51.480;5.706;2022-07-01T05:39:22;14.70;99.90
42715;DHT22;28351;51.480;5.706;2022-07-01T05:41:47;14.60;99.90
42715;DHT22;28351;51.480;5.706;2022-07-01T05:44:13;14.60;99.90
42715;DHT22;28351;51.480;5.706;2022-07-01T05:46:38;14.70;99.90
42715;DHT22;28351;51.480;5.706;2022-07-01T05:49:04;14.60;99.90
42715;DHT22;28351;51.480;5.706;2022-07-01T05:51:30;14.50;99.90
42715;DHT22;28351;51.480;5.706;2022-07-01T05:53:56;14.40;99.90
42715;DHT22;28351;51.480;5.706;2022-07-01T05:56:22;14.30;99.90
42715;DHT22;28351;51.480;5.706;2022-07-01T05:58:48;14.20;99.90
42715;DHT22;28351;51.480;5.706;2022-07-01T06:01:14;14.20;99.90
42715;DHT22;28351;51.480;5.706;2022-07-01T06:03:39;14.30;99.90
42715;DHT22;28351;51.480;5.706;2022-07-01T06:06:05;14.40;99.90
42715;DHT22;28351;51.480;5.706;2022-07-01T06:08:30;14.60;99.90
42715;DHT22;28351;51.480;5.706;2022-07-01T06:10:56;14.60;99.90
42715;DHT22;28351;51.480;5.706;2022-07-01T06:13:22;14.60;99.90
42715;DHT22;28351;51.480;5.706;2022-07-01T06:15:47;14.60;99.90
42715;DHT22;28351;51.480;5.706;2022-07-01T06:18:13;14.50;99.90
42715;DHT22;28351;51.480;5.706;2022-07-01T06:20:38;14.50;99.90
42715;DHT22;28351;51.480;5.706;2022-07-01T06:23:04;14.60;99.90
42715;DHT22;28351;51.480;5.706;2022-07-01T06:25:30;14.70;99.90
42715;DHT22;28351;51.480;5.706;2022-07-01T06:27:55;15.00;99.90
42715;DHT22;28351;51.480;5.706;2022-07-01T06:30:21;15.10;99.90
42715;DHT22;28351;51.480;5.706;2022-07-01T06:32:46;15.10;99.90
42715;DHT22;28351;51.480;5.706;2022-07-01T06:35:12;15.20;99.90
42715;DHT22;28351;51.480;5.706;2022-07-01T06:37:38;15.30;99.90
42715;DHT22;28351;51.480;5.706;2022-07-01T06:40:04;15.40;99.90
42715;DHT22;28351;51.480;5.706;2022-07-01T06:42:30;15.10;99.90
42715;DHT22;28351;51.480;5.706;2022-07-01T06:44:56;15.00;99.90
42715;DHT22;28351;51.480;5.706;2022-07-01T06:47:22;15.00;99.90
42715;DHT22;28351;51.480;5.706;2022-07-01T06:49:47;15.10;99.90
42715;DHT22;28351;51.480;5.706;2022-07-01T06:52:14;15.30;99.90
42715;DHT22;28351;51.480;5.706;2022-07-01T06:54:39;15.50;99.90
42715;DHT22;28351;51.480;5.706;2022-07-01T06:57:06;15.60;99.90
42715;DHT22;28351;51.480;5.706;2022-07-01T06:59:31;15.70;99.90
42715;DHT22;28351;51.480;5.706;2022-07-01T07:01:57;15.80;99.90
42715;DHT22;28351;51.480;5.706;2022-07-01T07:04:23;15.90;99.90
42715;DHT22;28351;51.480;5.706;2022-07-01T07:06:48;15.70;99.90
42715;DHT22;28351;51.480;5.706;2022-07-01T07:09:14;15.60;99.90
42715;DHT22;28351;51.480;5.706;2022-07-01T07:11:40;15.60;99.90
42715;DHT22;28351;51.480;5.706;2022-07-01T07:14:05;15.70;99.90
42715;DHT22;28351;51.480;5.706;2022-07-01T07:16:31;15.60;99.90
42715;DHT22;28351;51.480;5.706;2022-07-01T07:18:57;15.70;99.90
42715;DHT22;28351;51.480;5.706;2022-07-01T07:21:22;15.90;99.90
42715;DHT22;28351;51.480;5.706;2022-07-01T07:23:48;16.00;99.90
42715;DHT22;28351;51.480;5.706;2022-07-01T07:26:14;16.10;99.90
42715;DHT22;28351;51.480;5.706;2022-07-01T07:28:40;16.30;99.90
42715;DHT22;28351;51.480;5.706;2022-07-01T07:31:05;16.20;99.90
42715;DHT22;28351;51.480;5.706;2022-07-01T07:33:31;16.10;99.90
42715;DHT22;28351;51.480;5.706;2022-07-01T07:35:57;15.90;99.90
42715;DHT22;28351;51.480;5.706;2022-07-01T07:38:23;15.90;99.90
42715;DHT22;28351;51.480;5.706;2022-07-01T07:40:49;16.00;99.90
42715;DHT22;28351;51.480;5.706;2022-07-01T07:43:14;16.10;99.90
42715;DHT22;28351;51.480;5.706;2022-07-01T07:45:40;16.30;99.90
42715;DHT22;28351;51.480;5.706;2022-07-01T07:48:05;16.50;99.90
42715;DHT22;28351;51.480;5.706;2022-07-01T07:50:32;16.50;99.90
42715;DHT22;28351;51.480;5.706;2022-07-01T07:52:57;16.50;99.90
42715;DHT22;28351;51.480;5.706;2022-07-01T07:55:23;16.50;99.90
42715;DHT22;28351;51.480;5.706;2022-07-01T07:57:49;16.60;99.90
42715;DHT22;28351;51.480;5.706;2022-07-01T08:00:15;16.60;99.90
42715;DHT22;28351;51.480;5.706;2022-07-01T08:02:41;16.60;99.90
42715;DHT22;28351;51.480;5.706;2022-07-01T08:05:09;16.40;99.90
42715;DHT22;28351;51.480;5.706;2022-07-01T08:07:40;16.40;99.90
42715;DHT22;28351;51.480;5.706;2022-07-01T08:10:07;16.30;99.90
42715;DHT22;28351;51.480;5.706;2022-07-01T08:12:33;16.40;99.90
42715;DHT22;28351;51.480;5.706;2022-07-01T08:14:59;16.40;99.90
42715;DHT22;28351;51.480;5.706;2022-07-01T08:17:25;16.60;99.90
42715;DHT22;28351;51.480;5.706;2022-07-01T08:19:51;16.70;99.90
42715;DHT22;28351;51.480;5.706;2022-07-01T08:22:17;17.00;99.90
42715;DHT22;28351;51.480;5.706;2022-07-01T08:24:43;17.00;99.90
42715;DHT22;28351;51.480;5.706;2022-07-01T08:27:08;17.10;99.90
42715;DHT22;28351;51.480;5.706;2022-07-01T08:29:34;17.10;99.90
42715;DHT22;28351;51.480;5.706;2022-07-01T08:32:00;17.10;99.90
42715;DHT22;28351;51.480;5.706;2022-07-01T08:34:25;17.20;99.90
42715;DHT22;28351;51.480;5.706;2022-07-01T08:36:51;17.30;99.90
42715;DHT22;28351;51.480;5.706;2022-07-01T08:39:17;17.30;99.90
42715;DHT22;28351;51.480;5.706;2022-07-01T08:41:42;17.40;99.90
42715;DHT22;28351;51.480;5.706;2022-07-01T08:44:09;17.50;99.90
42715;DHT22;28351;51.480;5.706;2022-07-01T08:46:35;17.70;99.90
42715;DHT22;28351;51.480;5.706;2022-07-01T08:49:02;18.00;99.90
42715;DHT22;28351;51.480;5.706;2022-07-01T08:51:27;18.30;99.90
42715;DHT22;28351;51.480;5.706;2022-07-01T08:53:53;18.10;99.90
42715;DHT22;28351;51.480;5.706;2022-07-01T08:56:19;18.10;99.90
42715;DHT22;28351;51.480;5.706;2022-07-01T08:59:03;18.10;99.90
42715;DHT22;28351;51.480;5.706;2022-07-01T09:01:31;18.30;99.90
42715;DHT22;28351;51.480;5.706;2022-07-01T09:04:16;18.40;99.90
42715;DHT22;28351;51.480;5.706;2022-07-01T09:06:42;18.40;99.90
42715;DHT22;28351;51.480;5.706;2022-07-01T09:09:13;18.40;99.90
42715;DHT22;28351;51.480;5.706;2022-07-01T09:11:45;18.10;99.90
42715;DHT22;28351;51.480;5.706;2022-07-01T09:14:13;18.10;99.90
42715;DHT22;28351;51.480;5.706;2022-07-01T09:16:44;18.20;99.90
42715;DHT22;28351;51.480;5.706;2022-07-01T09:19:23;18.20;99.90
42715;DHT22;28351;51.480;5.706;2022-07-01T09:21:54;18.40;99.90
42715;DHT22;28351;51.480;5.706;2022-07-01T09:27:10;18.50;99.90
42715;DHT22;28351;51.480;5.706;2022-07-01T09:29:41;18.40;99.90
42715;DHT22;28351;51.480;5.706;2022-07-01T09:32:10;18.40;99.90
42715;DHT22;28351;51.480;5.706;2022-07-01T09:34:50;18.50;99.90
42715;DHT22;28351;51.480;5.706;2022-07-01T09:37:18;18.70;99.90
42715;DHT22;28351;51.480;5.706;2022-07-01T09:39:45;18.80;99.90
42715;DHT22;28351;51.480;5.706;2022-07-01T09:42:11;18.90;99.90
42715;DHT22;28351;51.480;5.706;2022-07-01T09:44:55;19.10;99.90
42715;DHT22;28351;51.480;5.706;2022-07-01T09:47:27;19.40;99.90
42715;DHT22;28351;51.480;5.706;2022-07-01T09:49:54;19.70;99.90
42715;DHT22;28351;51.480;5.706;2022-07-01T09:52:20;19.70;99.90
42715;DHT22;28351;51.480;5.706;2022-07-01T09:54:56;19.90;99.90
42715;DHT22;28351;51.480;5.706;2022-07-01T09:57:25;20.10;99.90
42715;DHT22;28351;51.480;5.706;2022-07-01T09:59:51;20.40;99.90
42715;DHT22;28351;51.480;5.706;2022-07-01T10:02:21;20.30;99.90
42715;DHT22;28351;51.480;5.706;2022-07-01T10:05:02;20.50;99.90
42715;DHT22;28351;51.480;5.706;2022-07-01T10:13:31;20.90;99.90
42715;DHT22;28351;51.480;5.706;2022-07-01T10:15:59;20.80;99.90
42715;DHT22;28351;51.480;5.706;2022-07-01T10:18:28;21.00;99.90
42715;DHT22;28351;51.480;5.706;2022-07-01T10:20:55;20.90;99.90
42715;DHT22;28351;51.480;5.706;2022-07-01T10:23:39;21.00;99.90
42715;DHT22;28351;51.480;5.706;2022-07-01T10:26:06;20.70;99.90
42715;DHT22;28351;51.480;5.706;2022-07-01T10:31:10;21.20;99.90
42715;DHT22;28351;51.480;5.706;2022-07-01T10:33:47;21.20;99.90
42715;DHT22;28351;51.480;5.706;2022-07-01T10:41:56;22.00;99.90
42715;DHT22;28351;51.480;5.706;2022-07-01T10:44:23;22.60;99.90
42715;DHT22;28351;51.480;5.706;2022-07-01T10:52:08;20.80;99.90
42715;DHT22;28351;51.480;5.706;2022-07-01T11:02:45;21.20;99.90
42715;DHT22;28351;51.480;5.706;2022-07-01T11:05:14;21.90;99.90
42715;DHT22;28351;51.480;5.706;2022-07-01T11:07:41;22.80;99.90
42715;DHT22;28351;51.480;5.706;2022-07-01T11:10:09;22.50;99.90
42715;DHT22;28351;51.480;5.706;2022-07-01T11:12:40;22.50;99.90
42715;DHT22;28351;51.480;5.706;2022-07-01T11:15:06;22.20;99.90
42715;DHT22;28351;51.480;5.706;2022-07-01T11:17:34;22.90;99.90
42715;DHT22;28351;51.480;5.706;2022-07-01T11:20:00;23.20;99.90
42715;DHT22;28351;51.480;5.706;2022-07-01T11:22:31;24.60;99.90
42715;DHT22;28351;51.480;5.706;2022-07-01T11:25:00;25.30;98.40
42715;DHT22;28351;51.480;5.706;2022-07-01T11:27:26;25.70;97.60
42715;DHT22;28351;51.480;5.706;2022-07-01T11:29:56;26.20;96.20
42715;DHT22;28351;51.480;5.706;2022-07-01T11:32:29;27.50;95.60
42715;DHT22;28351;51.480;5.706;2022-07-01T11:34:55;28.40;95.50
42715;DHT22;28351;51.480;5.706;2022-07-01T11:37:22;28.60;94.20
42715;DHT22;28351;51.480;5.706;2022-07-01T11:40:12;29.20;93.00
42715;DHT22;28351;51.480;5.706;2022-07-01T11:42:38;28.70;93.10
42715;DHT22;28351;51.480;5.706;2022-07-01T11:45:05;27.60;93.70
42715;DHT22;28351;51.480;5.706;2022-07-01T11:47:31;26.90;94.00
42715;DHT22;28351;51.480;5.706;2022-07-01T11:49:57;26.30;93.90
42715;DHT22;28351;51.480;5.706;2022-07-01T11:52:24;24.80;95.20
42715;DHT22;28351;51.480;5.706;2022-07-01T11:54:52;24.10;96.60
42715;DHT22;28351;51.480;5.706;2022-07-01T11:57:19;24.40;96.50
42715;DHT22;28351;51.480;5.706;2022-07-01T11:59:47;25.80;94.60
42715;DHT22;28351;51.480;5.706;2022-07-01T12:02:14;25.30;96.00
42715;DHT22;28351;51.480;5.706;2022-07-01T12:04:41;26.20;94.40
42715;DHT22;28351;51.480;5.706;2022-07-01T12:07:07;26.20;95.00
42715;DHT22;28351;51.480;5.706;2022-07-01T12:09:35;26.40;94.70
42715;DHT22;28351;51.480;5.706;2022-07-01T12:12:00;26.50;94.70
42715;DHT22;28351;51.480;5.706;2022-07-01T12:14:28;26.60;94.50
42715;DHT22;28351;51.480;5.706;2022-07-01T12:16:57;27.30;94.00
42715;DHT22;28351;51.480;5.706;2022-07-01T12:21:56;26.80;94.60
42715;DHT22;28351;51.480;5.706;2022-07-01T12:24:25;27.90;94.40
42715;DHT22;28351;51.480;5.706;2022-07-01T12:27:01;29.50;93.50
42715;DHT22;28351;51.480;5.706;2022-07-01T12:29:51;30.40;92.40
42715;DHT22;28351;51.480;5.706;2022-07-01T12:32:22;29.20;91.60
42715;DHT22;28351;51.480;5.706;2022-07-01T12:34:56;25.80;92.30
42715;DHT22;28351;51.480;5.706;2022-07-01T12:37:30;25.00;95.20
42715;DHT22;28351;51.480;5.706;2022-07-01T12:40:02;26.00;94.10
42715;DHT22;28351;51.480;5.706;2022-07-01T12:42:33;26.40;93.90
42715;DHT22;28351;51.480;5.706;2022-07-01T12:45:01;27.80;92.80
42715;DHT22;28351;51.480;5.706;2022-07-01T12:47:36;28.30;92.60
42715;DHT22;28351;51.480;5.706;2022-07-01T12:50:20;27.70;92.70
42715;DHT22;28351;51.480;5.706;2022-07-01T12:53:12;28.70;92.10
42715;DHT22;28351;51.480;5.706;2022-07-01T12:55:38;29.00;92.40
42715;DHT22;28351;51.480;5.706;2022-07-01T12:58:26;28.70;91.60
42715;DHT22;28351;51.480;5.706;2022-07-01T13:00:54;30.30;91.40
42715;DHT22;28351;51.480;5.706;2022-07-01T13:03:22;29.70;91.90
42715;DHT22;28351;51.480;5.706;2022-07-01T13:05:49;30.10;90.90
42715;DHT22;28351;51.480;5.706;2022-07-01T13:08:15;30.20;91.90
42715;DHT22;28351;51.480;5.706;2022-07-01T13:10:41;31.20;90.70
42715;DHT22;28351;51.480;5.706;2022-07-01T13:13:07;31.50;89.50
42715;DHT22;28351;51.480;5.706;2022-07-01T13:15:33;30.70;91.60
42715;DHT22;28351;51.480;5.706;2022-07-01T13:18:00;30.80;90.50
42715;DHT22;28351;51.480;5.706;2022-07-01T13:20:26;30.10;89.90
42715;DHT22;28351;51.480;5.706;2022-07-01T13:22:52;28.00;90.50
42715;DHT22;28351;51.480;5.706;2022-07-01T13:25:18;26.50;91.80
42715;DHT22;28351;51.480;5.706;2022-07-01T13:27:44;27.00;92.30
42715;DHT22;28351;51.480;5.706;2022-07-01T13:30:11;28.10;92.20
42715;DHT22;28351;51.480;5.706;2022-07-01T13:32:37;28.50;90.90
42715;DHT22;28351;51.480;5.706;2022-07-01T13:35:05;29.20;90.70
42715;DHT22;28351;51.480;5.706;2022-07-01T13:37:31;30.40;90.70
42715;DHT22;28351;51.480;5.706;2022-07-01T13:39:57;30.10;91.60
42715;DHT22;28351;51.480;5.706;2022-07-01T13:42:22;31.20;91.30
42715;DHT22;28351;51.480;5.706;2022-07-01T13:44:48;31.30;88.80
42715;DHT22;28351;51.480;5.706;2022-07-01T13:47:16;31.20;88.50
42715;DHT22;28351;51.480;5.706;2022-07-01T13:49:42;30.80;85.90
42715;DHT22;28351;51.480;5.706;2022-07-01T13:52:11;30.10;88.10
42715;DHT22;28351;51.480;5.706;2022-07-01T13:54:37;27.70;88.20
42715;DHT22;28351;51.480;5.706;2022-07-01T13:57:02;26.80;91.20
42715;DHT22;28351;51.480;5.706;2022-07-01T13:59:28;26.80;92.10
42715;DHT22;28351;51.480;5.706;2022-07-01T14:01:54;25.80;91.50
42715;DHT22;28351;51.480;5.706;2022-07-01T14:04:23;24.90;91.60
42715;DHT22;28351;51.480;5.706;2022-07-01T14:06:48;24.40;91.70
42715;DHT22;28351;51.480;5.706;2022-07-01T14:09:14;25.40;91.40
42715;DHT22;28351;51.480;5.706;2022-07-01T14:11:40;26.60;90.90
42715;DHT22;28351;51.480;5.706;2022-07-01T14:14:05;28.20;89.00
42715;DHT22;28351;51.480;5.706;2022-07-01T14:16:31;26.90;90.10
42715;DHT22;28351;51.480;5.706;2022-07-01T14:18:57;27.40;90.90
42715;DHT22;28351;51.480;5.706;2022-07-01T14:21:23;28.40;89.50
42715;DHT22;28351;51.480;5.706;2022-07-01T14:23:49;28.80;87.60
42715;DHT22;28351;51.480;5.706;2022-07-01T14:26:15;29.60;86.80
42715;DHT22;28351;51.480;5.706;2022-07-01T14:28:41;29.00;88.50
42715;DHT22;28351;51.480;5.706;2022-07-01T14:31:07;29.10;89.40
42715;DHT22;28351;51.480;5.706;2022-07-01T14:33:33;29.30;87.30
42715;DHT22;28351;51.480;5.706;2022-07-01T14:35:58;28.20;88.40
42715;DHT22;28351;51.480;5.706;2022-07-01T14:38:24;27.40;89.40
42715;DHT22;28351;51.480;5.706;2022-07-01T14:40:49;27.70;89.10
42715;DHT22;28351;51.480;5.706;2022-07-01T14:43:15;28.70;88.60
42715;DHT22;28351;51.480;5.706;2022-07-01T14:45:41;27.70;87.40
42715;DHT22;28351;51.480;5.706;2022-07-01T14:48:08;26.70;88.50
42715;DHT22;28351;51.480;5.706;2022-07-01T14:50:34;25.60;88.60
42715;DHT22;28351;51.480;5.706;2022-07-01T14:53:00;24.60;90.00
42715;DHT22;28351;51.480;5.706;2022-07-01T14:55:28;23.80;91.10
42715;DHT22;28351;51.480;5.706;2022-07-01T14:57:54;23.80;91.90
42715;DHT22;28351;51.480;5.706;2022-07-01T15:00:20;23.50;90.60
42715;DHT22;28351;51.480;5.706;2022-07-01T15:02:46;23.10;92.30
42715;DHT22;28351;51.480;5.706;2022-07-01T15:05:12;23.00;92.20
42715;DHT22;28351;51.480;5.706;2022-07-01T15:07:38;22.70;92.00
42715;DHT22;28351;51.480;5.706;2022-07-01T15:10:04;22.90;92.30
42715;DHT22;28351;51.480;5.706;2022-07-01T15:12:29;22.60;92.10
42715;DHT22;28351;51.480;5.706;2022-07-01T15:14:55;22.70;93.10
42715;DHT22;28351;51.480;5.706;2022-07-01T15:17:25;22.80;92.60
42715;DHT22;28351;51.480;5.706;2022-07-01T15:19:50;22.60;93.10
42715;DHT22;28351;51.480;5.706;2022-07-01T15:22:16;22.30;92.90
42715;DHT22;28351;51.480;5.706;2022-07-01T15:24:42;22.30;93.50
42715;DHT22;28351;51.480;5.706;2022-07-01T15:27:08;22.20;93.40
42715;DHT22;28351;51.480;5.706;2022-07-01T15:29:34;22.10;94.00
42715;DHT22;28351;51.480;5.706;2022-07-01T15:32:00;22.00;94.10
42715;DHT22;28351;51.480;5.706;2022-07-01T15:34:26;22.00;94.00
42715;DHT22;28351;51.480;5.706;2022-07-01T15:36:52;21.80;94.20
42715;DHT22;28351;51.480;5.706;2022-07-01T15:39:18;21.90;94.50
42715;DHT22;28351;51.480;5.706;2022-07-01T15:41:44;22.10;94.20
42715;DHT22;28351;51.480;5.706;2022-07-01T15:44:11;21.90;95.80
42715;DHT22;28351;51.480;5.706;2022-07-01T15:46:38;21.90;97.40
42715;DHT22;28351;51.480;5.706;2022-07-01T15:49:04;21.90;97.20
42715;DHT22;28351;51.480;5.706;2022-07-01T15:51:31;22.00;97.20
42715;DHT22;28351;51.480;5.706;2022-07-01T15:53:57;22.10;98.20
42715;DHT22;28351;51.480;5.706;2022-07-01T15:56:25;21.90;97.60
42715;DHT22;28351;51.480;5.706;2022-07-01T15:58:51;22.10;98.20
42715;DHT22;28351;51.480;5.706;2022-07-01T16:01:17;22.50;97.50
42715;DHT22;28351;51.480;5.706;2022-07-01T16:03:50;23.80;97.00